FALE

Details ICAO FALE
Name DURBAN - KING SHAKA INTERNATIONAL
Region South Africa
Timezone Africa/Johannesburg (UTC+2.0)
Plans Departing 87
Arriving 119
Stats Elevation 304 ft / 93 m (AMSL)
Location -29.611771° 31.119312°
Runways 1
Magnetic Variation 25.284° W
Sunrise 2017-12-15 02:51:07 UTC / 2017-12-15 04:51:07 Local
Sunset 2017-12-15 16:52:56 UTC / 2017-12-15 18:52:56 Local
Advertisement - Login to hide

Runways

ID Width Length Bearing (true) Bearing (mag) Surface Threshold Offset Overrun Length
06 200 ft / 61 m 12,158 ft / 3,706 m 37.13° 62.41° Asphalt 0 ft / 0 m 0 ft / 0 m
24 200 ft / 61 m 12,158 ft / 3,706 m 217.12° 242.40° Asphalt 0 ft / 0 m 0 ft / 0 m

Map

Weather


0- 5 10 15 20 25 30 35+ Temperature / ° C

Clouds and Precipitation
Forecast for 2017-12-15 18:00 UTC. Updated an hour ago

Ground ~20,000 ft ~40,000 ft Winds

METAR

FALE 151600Z 03012KT 9999 FEW020 SCT029 21/15 Q1018 NOSIG

TAF

Not found

Frequencies

Recorded 127.00 MHz ATIS
Tower 118.45 MHz SHAKA TWR
Ground 121.65 MHz SHAKA GND
Approach 125.75 MHz Durban Radar
Warning: Do not use this data for real-world aviation or navigation. No guarantee of current accuracy is given.